Time;durP1;ratioP1;P1;durP2;ratioP2;P2;SDS_P1;SDS_P2;PMS_P1;PMS_P2;Temp;Humidity;BMP_temperature;BMP_pressure;BME280_temperature;BME280_humidity;BME280_pressure;Samples;Min_cycle;Max_cycle;Signal;HPM_P1;HPM_P2
2020/09/22 07:17:34;;;;;;;5.9;1;;;;;;;19.5;74.12109;936.0012;;;;
2020/09/22 07:19:59;;;;;;;3.4;1.3;;;;;;;19.62;73.57031;935.9797;;;;
2020/09/22 07:22:23;;;;;;;3.1;1.3;;;;;;;19.65;74.25098;935.9364;;;;
2020/09/22 07:24:48;;;;;;;1.6;1;;;;;;;20.39;72.9873;935.9453;;;;
2020/09/22 07:27:14;;;;;;;1.2;1;;;;;;;20.55;66.82031;935.9375;;;;
2020/09/22 07:29:39;;;;;;;2;1.1;;;;;;;20.68;66.47852;936.0061;;;;
2020/09/22 07:32:06;;;;;;;2.2;0.9;;;;;;;21.95;65.0166;935.908;;;;
2020/09/22 07:34:31;;;;;;;1.2;0.8;;;;;;;22.81;61.03223;935.868;;;;
2020/09/22 07:36:57;;;;;;;1.4;0.9;;;;;;;23.4;56.72852;935.8915;;;;
2020/09/22 07:39:22;;;;;;;1.2;0.8;;;;;;;24.3;53.87402;935.8104;;;;
2020/09/22 07:41:49;;;;;;;3.3;0.8;;;;;;;25.22;51.41113;935.7273;;;;
2020/09/22 07:44:14;;;;;;;1.3;0.9;;;;;;;25.93;49.08105;935.8103;;;;
2020/09/22 07:46:40;;;;;;;1.5;1;;;;;;;26.68;49.30566;935.7654;;;;
2020/09/22 07:49:04;;;;;;;1;0.5;;;;;;;27.44;45.7832;935.7704;;;;
2020/09/22 07:51:30;;;;;;;1.2;0.7;;;;;;;27.93;44.3125;935.748;;;;
2020/09/22 07:53:55;;;;;;;1.6;1;;;;;;;28.75;43.00195;935.7528;;;;
2020/09/22 07:56:22;;;;;;;1;0.6;;;;;;;28.44;43.14941;935.7506;;;;
2020/09/22 07:58:47;;;;;;;0.7;0.5;;;;;;;29.15;43.62305;935.7723;;;;
2020/09/22 08:01:15;;;;;;;4.4;1;;;;;;;30.25;41.16211;935.7482;;;;
2020/09/22 08:03:40;;;;;;;1.4;0.8;;;;;;;30.42;40.72363;935.7921;;;;
2020/09/22 08:06:05;;;;;;;1;0.7;;;;;;;30.39;38.78613;935.7312;;;;
2020/09/22 08:08:30;;;;;;;2.3;0.9;;;;;;;29.81;42.60156;935.7081;;;;
2020/09/22 08:10:58;;;;;;;1.5;0.7;;;;;;;30.95;39.18262;935.6457;;;;
2020/09/22 08:13:23;;;;;;;1;0.9;;;;;;;30.21;39.22461;935.709;;;;
2020/09/22 08:15:50;;;;;;;1.3;0.8;;;;;;;31.13;38.79004;935.6479;;;;
2020/09/22 08:18:15;;;;;;;1.1;0.7;;;;;;;32.2;36.91504;935.6512;;;;
2020/09/22 08:20:44;;;;;;;0.8;0.3;;;;;;;31.69;35.47363;935.6578;;;;
2020/09/22 08:23:09;;;;;;;0.7;0.5;;;;;;;30.65;38.36719;935.6284;;;;
2020/09/22 08:25:35;;;;;;;0.7;0.6;;;;;;;31.15;37.02246;935.6581;;;;
2020/09/22 08:28:02;;;;;;;1.4;0.7;;;;;;;31.71;36.46875;935.5991;;;;
2020/09/22 08:30:27;;;;;;;2.5;0.8;;;;;;;31.73;38.2793;935.6024;;;;
2020/09/22 08:32:56;;;;;;;0.7;0.4;;;;;;;33.28;35.29688;935.5939;;;;
2020/09/22 08:35:22;;;;;;;0.8;0.6;;;;;;;33.62;34.01172;935.6163;;;;
2020/09/22 08:37:48;;;;;;;2;1.2;;;;;;;34.33;32.42676;935.6131;;;;
2020/09/22 08:40:14;;;;;;;0.8;0.7;;;;;;;35.06;31.69434;935.5924;;;;
2020/09/22 08:42:42;;;;;;;1.1;0.8;;;;;;;35.96;30.36719;935.5803;;;;
2020/09/22 08:45:07;;;;;;;1.2;0.5;;;;;;;36.37;29.57031;935.5982;;;;
2020/09/22 08:47:35;;;;;;;0.4;0.4;;;;;;;34.58;30.39648;935.5877;;;;
2020/09/22 08:50:01;;;;;;;0.8;0.6;;;;;;;33.9;33.1543;935.5923;;;;
2020/09/22 08:52:26;;;;;;;1.3;1;;;;;;;33.51;33.52246;935.5313;;;;
2020/09/22 08:54:51;;;;;;;0.6;0.5;;;;;;;34.41;31.33594;935.5014;;;;
2020/09/22 08:57:16;;;;;;;1.1;0.8;;;;;;;34.48;31.4375;935.4762;;;;
2020/09/22 08:59:41;;;;;;;0.6;0.5;;;;;;;34.82;30.33984;935.462;;;;
2020/09/22 09:02:07;;;;;;;1.3;0.7;;;;;;;34.8;30.67578;935.4213;;;;
2020/09/22 09:04:32;;;;;;;1.4;0.5;;;;;;;34.84;30.56934;935.4077;;;;
2020/09/22 09:06:57;;;;;;;0.9;0.7;;;;;;;34.09;31.18164;935.4291;;;;
2020/09/22 09:09:24;;;;;;;1.2;0.9;;;;;;;33.9;31.69922;935.3847;;;;
2020/09/22 09:11:49;;;;;;;1;0.6;;;;;;;33.2;31.55371;935.3594;;;;
2020/09/22 09:14:18;;;;;;;0.7;0.7;;;;;;;33.45;31.18652;935.3168;;;;
2020/09/22 09:16:44;;;;;;;1.2;0.8;;;;;;;31.43;36.19434;935.2785;;;;
2020/09/22 09:19:09;;;;;;;1;0.6;;;;;;;30.8;39.22852;935.262;;;;
2020/09/22 09:21:38;;;;;;;0.8;0.6;;;;;;;30.79;39.63379;935.2539;;;;
2020/09/22 09:24:03;;;;;;;2.3;0.8;;;;;;;29.87;41.12793;935.2283;;;;
2020/09/22 09:26:28;;;;;;;2.1;0.9;;;;;;;29.66;40.53613;935.1633;;;;
2020/09/22 09:28:54;;;;;;;1.1;0.8;;;;;;;29.17;43.64941;935.1215;;;;
2020/09/22 09:31:21;;;;;;;1.2;1;;;;;;;28.38;44.30957;935.057;;;;
2020/09/22 09:33:46;;;;;;;0.8;0.7;;;;;;;27.16;47.74707;935.0745;;;;
2020/09/22 09:36:12;;;;;;;2.1;0.9;;;;;;;27.56;45.83105;935.0769;;;;
2020/09/22 09:38:37;;;;;;;0.8;0.5;;;;;;;27.82;44.31348;935.0453;;;;
2020/09/22 09:41:04;;;;;;;1.4;1;;;;;;;27.94;43.68359;935.0559;;;;
2020/09/22 09:43:29;;;;;;;0.6;0.3;;;;;;;27.63;43.99805;934.9922;;;;
2020/09/22 09:45:55;;;;;;;1.1;0.8;;;;;;;27.72;44.2793;934.959;;;;
2020/09/22 09:48:20;;;;;;;1.1;0.9;;;;;;;27.58;43.75586;934.9797;;;;
2020/09/22 09:50:45;;;;;;;2.9;0.8;;;;;;;27.13;44.75488;934.9651;;;;
2020/09/22 09:53:11;;;;;;;1.7;0.8;;;;;;;27.48;45.40723;934.9009;;;;
2020/09/22 09:55:37;;;;;;;4.6;1.2;;;;;;;26.32;45.66895;934.8947;;;;
2020/09/22 09:58:02;;;;;;;1;0.7;;;;;;;26.5;47.2373;934.8818;;;;
2020/09/22 10:00:30;;;;;;;1.7;0.9;;;;;;;25.89;49.79883;934.8596;;;;
2020/09/22 10:02:56;;;;;;;2.2;1;;;;;;;26.29;49.44043;934.7128;;;;
2020/09/22 10:05:21;;;;;;;1.7;0.7;;;;;;;26.31;49.09961;934.7901;;;;
2020/09/22 10:07:45;;;;;;;1.2;0.9;;;;;;;26;50.40234;934.7839;;;;
2020/09/22 10:10:11;;;;;;;1;0.8;;;;;;;26.48;48.60938;934.6877;;;;
2020/09/22 10:12:36;;;;;;;1.9;1.1;;;;;;;26.88;47.0166;934.6992;;;;
2020/09/22 10:15:01;;;;;;;0.9;0.7;;;;;;;26.81;49.48535;934.7192;;;;
2020/09/22 10:17:27;;;;;;;1;0.8;;;;;;;26.48;49.78125;934.682;;;;
2020/09/22 10:19:52;;;;;;;1.7;1;;;;;;;26.92;49.79492;934.7089;;;;
2020/09/22 10:22:17;;;;;;;3.4;1.1;;;;;;;27.07;48.14063;934.6269;;;;
2020/09/22 10:24:42;;;;;;;0.9;0.6;;;;;;;27.32;46.58887;934.6384;;;;
2020/09/22 10:27:09;;;;;;;1.4;0.8;;;;;;;27.31;48.9248;934.6093;;;;
2020/09/22 10:29:34;;;;;;;0.9;0.6;;;;;;;26.11;51.36035;934.5878;;;;
2020/09/22 10:32:00;;;;;;;1.2;0.9;;;;;;;26.65;49.38672;934.5145;;;;
2020/09/22 10:34:25;;;;;;;2;0.8;;;;;;;27.21;45.55664;934.5109;;;;
2020/09/22 10:36:52;;;;;;;0.9;0.8;;;;;;;27.34;47.48047;934.4377;;;;
2020/09/22 10:39:17;;;;;;;1.6;1;;;;;;;27.68;48.34766;934.4277;;;;
2020/09/22 10:41:43;;;;;;;0.9;0.8;;;;;;;27.18;46.52637;934.3836;;;;
2020/09/22 10:44:09;;;;;;;1.4;1.2;;;;;;;27.38;48.30273;934.3059;;;;
2020/09/22 10:46:37;;;;;;;1.9;1.1;;;;;;;26.96;46.23145;934.2831;;;;
2020/09/22 10:49:02;;;;;;;0.8;0.7;;;;;;;27.57;45.15527;934.2519;;;;
2020/09/22 10:51:28;;;;;;;1.4;0.9;;;;;;;27.68;45.97363;934.2631;;;;
2020/09/22 10:53:53;;;;;;;1.6;1.2;;;;;;;28.08;43.7334;934.2369;;;;
2020/09/22 10:56:18;;;;;;;1.3;1.1;;;;;;;28.43;44.47949;934.244;;;;
2020/09/22 10:58:46;;;;;;;0.9;0.8;;;;;;;28.07;43.7207;934.2831;;;;
2020/09/22 11:01:12;;;;;;;2.8;0.9;;;;;;;26.9;46.42773;934.2215;;;;
2020/09/22 11:03:37;;;;;;;1.4;1.1;;;;;;;27.03;47.43555;934.2216;;;;
2020/09/22 11:06:02;;;;;;;1.9;1;;;;;;;26.79;47.55273;934.1877;;;;
2020/09/22 11:08:27;;;;;;;1.3;1;;;;;;;26.44;49.69434;934.1935;;;;
2020/09/22 11:10:56;;;;;;;1.4;0.9;;;;;;;26.3;49.7373;934.1914;;;;
2020/09/22 11:13:21;;;;;;;2.3;1.1;;;;;;;26.28;49.99512;934.1577;;;;
2020/09/22 11:15:55;;;;;;;4.1;1.2;;;;;;;26.02;51.76465;934.1119;;;;
2020/09/22 11:18:25;;;;;;;1.6;1.3;;;;;;;25.85;51.31934;934.0947;;;;
2020/09/22 11:20:56;;;;;;;1.1;0.9;;;;;;;25.11;54.21875;934.0673;;;;
2020/09/22 11:23:22;;;;;;;2.1;1;;;;;;;25.51;53.60742;934.0461;;;;
2020/09/22 11:25:47;;;;;;;2.2;1;;;;;;;25.61;53.07617;933.9783;;;;
2020/09/22 11:28:13;;;;;;;3.2;1.1;;;;;;;25.65;52.86719;933.9972;;;;
2020/09/22 11:30:38;;;;;;;3.2;1.2;;;;;;;25.74;52.29883;934.0051;;;;
2020/09/22 11:33:03;;;;;;;1.5;0.9;;;;;;;25.89;52.29297;934.0323;;;;
2020/09/22 11:35:28;;;;;;;1.8;0.7;;;;;;;26.69;52.07813;934.0386;;;;
2020/09/22 11:37:53;;;;;;;2.4;1;;;;;;;27.18;48.41211;933.9617;;;;
2020/09/22 11:40:20;;;;;;;2.8;1.4;;;;;;;26.4;51.40527;933.9255;;;;
2020/09/22 11:42:45;;;;;;;1.3;0.9;;;;;;;26.25;50.84375;933.9766;;;;
2020/09/22 11:45:10;;;;;;;4;1.8;;;;;;;26.24;51.22168;933.9059;;;;
2020/09/22 11:47:38;;;;;;;3.6;0.7;;;;;;;26.22;51.23145;933.9135;;;;
2020/09/22 11:50:03;;;;;;;2.8;1;;;;;;;26.59;52.17285;933.8303;;;;
2020/09/22 11:52:28;;;;;;;1.8;1.3;;;;;;;27.08;50.48828;933.8431;;;;
2020/09/22 11:54:53;;;;;;;1.9;1;;;;;;;27.7;48.53906;933.7899;;;;
2020/09/22 11:57:20;;;;;;;3.2;1.1;;;;;;;28.04;47.93457;933.8381;;;;
2020/09/22 11:59:45;;;;;;;1.7;1.2;;;;;;;27.95;48.625;933.8088;;;;
2020/09/22 12:02:10;;;;;;;1.1;0.8;;;;;;;28.09;48.41504;933.7834;;;;
2020/09/22 12:04:36;;;;;;;4.1;1.2;;;;;;;27.98;48.09473;933.7239;;;;
2020/09/22 12:07:01;;;;;;;1.3;1.1;;;;;;;28.1;48.6543;933.7218;;;;
2020/09/22 12:09:26;;;;;;;2.4;1.3;;;;;;;27.95;47.6875;933.6572;;;;
2020/09/22 12:11:51;;;;;;;1.5;1;;;;;;;28.02;47.31543;933.639;;;;
2020/09/22 12:14:18;;;;;;;3.4;1.4;;;;;;;27.75;48.66406;933.6658;;;;
2020/09/22 12:16:43;;;;;;;2.7;1;;;;;;;27.45;48.58301;933.637;;;;
2020/09/22 12:19:09;;;;;;;0.8;0.6;;;;;;;27.12;49.2002;933.5905;;;;
2020/09/22 12:21:35;;;;;;;2.7;0.8;;;;;;;27.17;49.92871;933.5876;;;;
2020/09/22 12:24:01;;;;;;;1.2;1;;;;;;;27.22;49.66211;933.5622;;;;
2020/09/22 12:26:26;;;;;;;1.9;1;;;;;;;27.37;49.14453;933.5836;;;;
2020/09/22 12:28:53;;;;;;;2.4;1.1;;;;;;;27.13;49.47363;933.6;;;;
2020/09/22 12:31:31;;;;;;;1.3;0.9;;;;;;;27.08;50.25098;933.4933;;;;
2020/09/22 12:34:01;;;;;;;2;0.9;;;;;;;26.89;49.82617;933.5539;;;;
2020/09/22 12:36:26;;;;;;;2.9;1;;;;;;;26.84;48.98047;933.5231;;;;
2020/09/22 12:38:51;;;;;;;2.5;1.3;;;;;;;26.74;50.39063;933.551;;;;
2020/09/22 12:41:16;;;;;;;1.2;0.9;;;;;;;26.76;51.15039;933.5441;;;;
2020/09/22 12:43:41;;;;;;;1.9;0.9;;;;;;;26.71;51.72461;933.5407;;;;
2020/09/22 12:46:07;;;;;;;1.9;1.1;;;;;;;26.45;51.25781;933.5397;;;;
2020/09/22 12:48:32;;;;;;;1.6;0.8;;;;;;;26.4;51.7373;933.5336;;;;
2020/09/22 12:50:59;;;;;;;1.1;1;;;;;;;26.34;52.53418;933.5195;;;;
2020/09/22 12:53:25;;;;;;;0.8;0.5;;;;;;;26.33;52.20215;933.5258;;;;
2020/09/22 12:55:50;;;;;;;2.3;0.8;;;;;;;26.37;51.11816;933.4632;;;;
2020/09/22 12:58:15;;;;;;;1.7;0.8;;;;;;;26.32;51.66797;933.462;;;;
2020/09/22 13:05:31;;;;;;;2.3;1;;;;;;;26.21;53.1582;933.3214;;;;
2020/09/22 13:07:58;;;;;;;1.2;0.9;;;;;;;26.18;52.71777;933.3284;;;;
2020/09/22 13:10:45;;;;;;;1.1;0.8;;;;;;;26.14;55.1377;933.3181;;;;
2020/09/22 13:17:42;;;;;;;1.9;1.1;;;;;;;26.11;56.67188;933.3466;;;;
2020/09/22 13:22:34;;;;;;;0.9;0.7;;;;;;;26.35;55.69629;933.3427;;;;
2020/09/22 13:25:05;;;;;;;1.8;0.9;;;;;;;26.48;53.81836;933.316;;;;
2020/09/22 13:27:19;;;;;;;1.4;0.7;;;;;;;26.97;52.72754;933.2701;;;;
2020/09/22 13:29:57;;;;;;;1.9;1.1;;;;;;;26.97;52.0293;933.2028;;;;
2020/09/22 13:32:26;;;;;;;1.3;1.1;;;;;;;27.25;51.58594;933.2166;;;;
2020/09/22 13:34:37;;;;;;;1;0.8;;;;;;;27.33;52.2832;933.1878;;;;
2020/09/22 13:37:03;;;;;;;3.4;1;;;;;;;27.5;49.92969;933.1175;;;;
2020/09/22 13:39:27;;;;;;;2.9;1.2;;;;;;;27.64;51.06152;933.1711;;;;
2020/09/22 13:41:52;;;;;;;1.2;0.9;;;;;;;27.56;50.10254;933.1161;;;;
2020/09/22 13:44:17;;;;;;;2.7;1.2;;;;;;;27.35;50.17383;933.1483;;;;
2020/09/22 13:46:44;;;;;;;1.8;1;;;;;;;27.32;50.5625;933.1465;;;;
2020/09/22 13:49:10;;;;;;;1.5;0.8;;;;;;;27.2;51.75781;933.0586;;;;
2020/09/22 13:51:37;;;;;;;3.7;1.2;;;;;;;27.21;51.36719;933.0179;;;;
2020/09/22 13:54:02;;;;;;;4.3;1.1;;;;;;;27.01;52.53125;932.955;;;;
2020/09/22 13:56:28;;;;;;;1.1;1;;;;;;;27.28;51.56543;932.985;;;;
2020/09/22 13:58:54;;;;;;;2;1.2;;;;;;;27.36;50.02051;932.9752;;;;
2020/09/22 14:01:19;;;;;;;1.8;0.9;;;;;;;27.05;50.87695;932.9034;;;;
2020/09/22 14:03:46;;;;;;;2;1.6;;;;;;;27.16;50.02246;932.9434;;;;
2020/09/22 14:06:10;;;;;;;1.3;1.1;;;;;;;27.31;49.62402;932.934;;;;
2020/09/22 14:08:36;;;;;;;1.6;1.1;;;;;;;27.55;50.03027;932.9327;;;;
2020/09/22 14:11:06;;;;;;;1.4;1;;;;;;;27.81;49.10938;932.8511;;;;
2020/09/22 14:13:32;;;;;;;1.3;1;;;;;;;27.82;49.39648;932.8272;;;;
2020/09/22 14:15:58;;;;;;;1.7;0.8;;;;;;;27.96;48.61523;932.7198;;;;
2020/09/22 14:18:25;;;;;;;2.3;1.3;;;;;;;27.97;48.80664;932.6769;;;;
2020/09/22 14:20:50;;;;;;;1.5;0.9;;;;;;;28.12;49.96289;932.5984;;;;
2020/09/22 14:23:18;;;;;;;2.7;1.3;;;;;;;28.13;48.27637;932.6125;;;;
2020/09/22 14:25:44;;;;;;;1.5;0.8;;;;;;;28.01;48.09766;932.5776;;;;
2020/09/22 14:28:09;;;;;;;2;1.2;;;;;;;27.91;47.69531;932.5129;;;;
2020/09/22 14:30:34;;;;;;;1.5;1.2;;;;;;;27.83;47.7334;932.4341;;;;
2020/09/22 14:33:00;;;;;;;1.3;1;;;;;;;27.73;48.29297;932.3953;;;;
2020/09/22 14:35:25;;;;;;;1.5;0.9;;;;;;;27.57;48.7041;932.4016;;;;
2020/09/22 14:37:51;;;;;;;2.1;1.2;;;;;;;27.32;49.4707;932.3708;;;;
2020/09/22 14:40:17;;;;;;;2.4;1.4;;;;;;;27.16;50.16602;932.3179;;;;
2020/09/22 14:42:44;;;;;;;2.1;1.1;;;;;;;27.09;49.80176;932.2662;;;;
2020/09/22 14:45:09;;;;;;;2;1.3;;;;;;;27.12;50.18359;932.2234;;;;
2020/09/22 14:47:35;;;;;;;1.3;1;;;;;;;26.92;50.31641;932.2793;;;;
2020/09/22 14:50:00;;;;;;;4.3;1.2;;;;;;;26.94;51.10059;932.2048;;;;
2020/09/22 14:52:26;;;;;;;1.3;0.8;;;;;;;26.97;50.27344;932.2388;;;;
2020/09/22 14:54:51;;;;;;;1.9;0.9;;;;;;;26.95;49.78613;932.1666;;;;
2020/09/22 14:57:17;;;;;;;3.5;1.2;;;;;;;26.88;50.88086;932.2557;;;;
2020/09/22 14:59:42;;;;;;;2.2;0.9;;;;;;;26.82;51.65527;932.2125;;;;
2020/09/22 15:02:07;;;;;;;1.7;0.9;;;;;;;26.72;50.68457;932.2085;;;;
2020/09/22 15:04:45;;;;;;;2.4;1.3;;;;;;;26.49;52.20996;932.1219;;;;
2020/09/22 15:07:10;;;;;;;2.3;1;;;;;;;26.4;51.28711;932.2236;;;;
2020/09/22 15:09:35;;;;;;;1.9;0.8;;;;;;;26.35;51.57813;932.195;;;;
2020/09/22 15:12:00;;;;;;;1.7;1.1;;;;;;;26.14;52.18066;932.2062;;;;
2020/09/22 15:14:25;;;;;;;1.2;1.1;;;;;;;26.04;53.05566;932.131;;;;
2020/09/22 15:16:50;;;;;;;1.4;0.7;;;;;;;25.98;53.07031;932.2169;;;;
2020/09/22 15:19:16;;;;;;;6.8;1.7;;;;;;;25.88;53.02441;932.177;;;;
2020/09/22 15:21:43;;;;;;;2;0.8;;;;;;;25.76;53.84961;932.1102;;;;
2020/09/22 15:24:06;;;;;;;4.6;1.5;;;;;;;25.72;53.53711;932.0491;;;;
2020/09/22 15:26:42;;;;;;;1.1;0.8;;;;;;;25.72;53.83301;932.052;;;;
2020/09/22 15:29:07;;;;;;;2.3;1.3;;;;;;;25.71;54.22266;932.095;;;;
2020/09/22 15:31:32;;;;;;;2.5;1.3;;;;;;;25.64;53.91797;932.0572;;;;
2020/09/22 15:33:59;;;;;;;1.6;0.9;;;;;;;25.68;53.92383;932.0316;;;;
2020/09/22 15:36:23;;;;;;;2.9;1;;;;;;;25.69;54.04199;931.9849;;;;
2020/09/22 15:38:48;;;;;;;1.5;1.2;;;;;;;25.29;55.77637;932.0062;;;;
2020/09/22 15:41:14;;;;;;;2.5;1;;;;;;;25.16;56.70508;931.9855;;;;
2020/09/22 15:43:39;;;;;;;2.3;1.3;;;;;;;25.14;57.43457;931.9556;;;;
2020/09/22 15:46:08;;;;;;;1.2;0.8;;;;;;;25.07;56.87012;931.9594;;;;
2020/09/22 15:48:32;;;;;;;3.3;1.4;;;;;;;24.76;59.84961;931.9358;;;;
2020/09/22 15:51:00;;;;;;;2.9;1.7;;;;;;;24.84;60.98242;931.9084;;;;
2020/09/22 15:53:24;;;;;;;2.4;1.7;;;;;;;24.79;60.43164;931.9155;;;;
2020/09/22 15:55:52;;;;;;;2.8;1.4;;;;;;;24.68;61.70215;931.8953;;;;
2020/09/22 15:58:19;;;;;;;2;1.5;;;;;;;24.34;62.81055;931.887;;;;
2020/09/22 16:00:48;;;;;;;1.5;1.2;;;;;;;24.47;61.20117;931.9238;;;;
2020/09/22 16:03:14;;;;;;;2.4;1;;;;;;;24.53;60.14941;931.9464;;;;
2020/09/22 16:05:39;;;;;;;1.9;1.3;;;;;;;24.52;59.7832;931.9533;;;;
2020/09/22 16:08:04;;;;;;;1.9;1.5;;;;;;;24.58;59.73242;931.9411;;;;
2020/09/22 16:10:33;;;;;;;1.6;1.2;;;;;;;23.92;60.69141;931.9938;;;;
2020/09/22 16:12:58;;;;;;;1.2;1.1;;;;;;;23.4;61.3125;932.0733;;;;
2020/09/22 16:15:26;;;;;;;1.8;1.3;;;;;;;23.2;61.38086;932.0761;;;;
2020/09/22 16:17:55;;;;;;;1.4;1.1;;;;;;;23.01;61.92871;932.0488;;;;
2020/09/22 16:20:20;;;;;;;1.2;0.9;;;;;;;22.96;61.55957;932.0348;;;;
2020/09/22 16:22:46;;;;;;;2.3;1.4;;;;;;;22.86;61.97949;932.0485;;;;
2020/09/22 16:25:11;;;;;;;1;0.9;;;;;;;22.87;61.81738;932.1217;;;;
2020/09/22 16:27:37;;;;;;;1.6;1;;;;;;;22.86;61.5918;932.1451;;;;
2020/09/22 16:30:02;;;;;;;2.3;0.9;;;;;;;22.88;61.80664;932.1277;;;;
2020/09/22 16:32:27;;;;;;;6;1.6;;;;;;;22.63;63.56738;932.1408;;;;
2020/09/22 16:34:53;;;;;;;1;0.9;;;;;;;22.65;64.06348;932.1545;;;;
2020/09/22 16:37:18;;;;;;;1.5;1.1;;;;;;;22.45;65.04395;932.1433;;;;
2020/09/22 16:39:43;;;;;;;3.2;1.5;;;;;;;22.22;66.06445;932.1192;;;;
2020/09/22 16:42:08;;;;;;;2;1.5;;;;;;;22.13;66.36914;932.0921;;;;
2020/09/22 16:44:35;;;;;;;1.3;1.1;;;;;;;21.96;66.73047;932.0642;;;;
2020/09/22 16:47:00;;;;;;;2.5;1.4;;;;;;;22.02;66.70313;932.1266;;;;
2020/09/22 16:49:27;;;;;;;1.5;1.1;;;;;;;22.14;66.07715;932.125;;;;
2020/09/22 16:51:52;;;;;;;1.1;0.9;;;;;;;22.15;66.27637;932.1116;;;;
2020/09/22 16:54:19;;;;;;;2.3;1.2;;;;;;;22.23;65.66895;932.1893;;;;
2020/09/22 16:56:45;;;;;;;3.6;1.4;;;;;;;22.24;65.91504;932.2037;;;;
2020/09/22 16:59:11;;;;;;;1.4;1;;;;;;;22.27;66.27246;932.1796;;;;
2020/09/22 17:01:36;;;;;;;1.6;1;;;;;;;22.25;66.57324;932.1619;;;;
2020/09/22 17:04:02;;;;;;;1.8;1;;;;;;;21.9;68.05469;932.0552;;;;
2020/09/22 17:06:27;;;;;;;1.3;1.2;;;;;;;21.72;68.56738;932.137;;;;
2020/09/22 17:08:53;;;;;;;1.6;1.1;;;;;;;21.71;68.16797;932.1108;;;;
2020/09/22 17:11:19;;;;;;;2.9;1.6;;;;;;;21.43;69.15527;932.1183;;;;
2020/09/22 17:13:45;;;;;;;1.7;1.4;;;;;;;21.14;70.96875;932.1403;;;;
2020/09/22 17:16:10;;;;;;;1.4;1.1;;;;;;;21.22;70.77051;932.0964;;;;
2020/09/22 17:18:36;;;;;;;1.7;1.2;;;;;;;21.35;69.98535;932.0825;;;;
2020/09/22 17:21:01;;;;;;;2.3;1.3;;;;;;;21.58;69.91504;932.1349;;;;
2020/09/22 17:23:28;;;;;;;1.6;1;;;;;;;21.65;70.30273;932.1877;;;;
2020/09/22 17:25:53;;;;;;;2.3;1.1;;;;;;;21.76;70.28516;932.1936;;;;
2020/09/22 17:28:20;;;;;;;1.5;1.2;;;;;;;21.6;73.74707;932.2183;;;;
2020/09/22 17:30:46;;;;;;;4.2;1.9;;;;;;;21.25;76.43945;932.2569;;;;
2020/09/22 17:33:11;;;;;;;2.7;1.3;;;;;;;21.29;75.88281;932.2441;;;;
2020/09/22 17:35:37;;;;;;;9.3;4.9;;;;;;;21.29;75.83789;932.2503;;;;
2020/09/22 17:38:02;;;;;;;9.1;3.9;;;;;;;21.38;77.12988;932.3347;;;;
2020/09/22 17:40:31;;;;;;;6.7;3.4;;;;;;;21.34;77.15723;932.2595;;;;
2020/09/22 17:42:56;;;;;;;2.7;1.4;;;;;;;21.28;77.7666;932.2605;;;;
2020/09/22 17:45:25;;;;;;;2.2;1.2;;;;;;;20.74;78.91211;932.259;;;;
2020/09/22 17:47:51;;;;;;;3.3;1.7;;;;;;;20.45;80.85645;932.2394;;;;
2020/09/22 17:50:16;;;;;;;2.9;1.3;;;;;;;20.44;80.45703;932.2623;;;;
2020/09/22 17:52:43;;;;;;;3.7;1.8;;;;;;;20.62;79.6377;932.2709;;;;
2020/09/22 17:55:08;;;;;;;2.4;1.5;;;;;;;20.78;78.61426;932.3409;;;;
2020/09/22 17:57:33;;;;;;;1.4;0.9;;;;;;;20.86;77.78711;932.3283;;;;
2020/09/22 17:59:58;;;;;;;2.9;1;;;;;;;20.89;77.60352;932.3864;;;;
2020/09/22 18:02:23;;;;;;;3.6;1.1;;;;;;;20.88;77.06445;932.3367;;;;
2020/09/22 18:04:48;;;;;;;1.6;1.1;;;;;;;20.88;77.05371;932.4061;;;;
2020/09/22 18:07:14;;;;;;;1.9;1.3;;;;;;;20.87;77.05273;932.3514;;;;
2020/09/22 18:09:38;;;;;;;2.4;1.7;;;;;;;20.73;78.51172;932.4367;;;;
2020/09/22 18:12:04;;;;;;;2.3;1.1;;;;;;;20.76;78.2373;932.4703;;;;
2020/09/22 18:14:29;;;;;;;3.1;1.5;;;;;;;20.78;78.64844;932.4949;;;;
2020/09/22 18:16:56;;;;;;;2.2;1.3;;;;;;;20.72;78.5332;932.4849;;;;
2020/09/22 18:19:21;;;;;;;3.4;1.3;;;;;;;20.56;77.46582;932.473;;;;
2020/09/22 18:21:47;;;;;;;4.1;1.6;;;;;;;20.42;78.91113;932.4353;;;;
2020/09/22 18:24:12;;;;;;;2.4;1.1;;;;;;;20.43;78.75098;932.4844;;;;
2020/09/22 18:26:37;;;;;;;1.7;1.4;;;;;;;20.48;78.28125;932.4808;;;;
2020/09/22 18:29:06;;;;;;;2.5;1.2;;;;;;;20.53;78.32422;932.5193;;;;
2020/09/22 18:31:31;;;;;;;2.6;1.3;;;;;;;20.57;78.20215;932.4185;;;;
2020/09/22 18:33:56;;;;;;;2.4;1.9;;;;;;;20.31;78.69434;932.4462;;;;
2020/09/22 18:36:22;;;;;;;1.9;1.2;;;;;;;20.03;79.77637;932.4288;;;;
2020/09/22 18:38:48;;;;;;;1.8;1.1;;;;;;;20.07;79.32813;932.4936;;;;
2020/09/22 18:41:14;;;;;;;1.7;1.3;;;;;;;20.14;79.14063;932.421;;;;
2020/09/22 18:43:40;;;;;;;1.2;0.9;;;;;;;19.87;79.54883;932.4214;;;;
2020/09/22 18:46:06;;;;;;;1.8;1.3;;;;;;;19.85;79.10254;932.4325;;;;
2020/09/22 18:48:31;;;;;;;1.4;1.2;;;;;;;19.84;79.20605;932.3997;;;;
2020/09/22 18:50:58;;;;;;;1.4;1;;;;;;;19.83;79.07617;932.4016;;;;
2020/09/22 18:53:22;;;;;;;3.3;1.2;;;;;;;19.82;79.9375;932.4316;;;;
2020/09/22 18:55:49;;;;;;;3.5;1.2;;;;;;;19.74;80.23633;932.3861;;;;
2020/09/22 18:58:14;;;;;;;1.9;0.8;;;;;;;19.8;80.49219;932.4019;;;;
2020/09/22 19:00:44;;;;;;;1.6;1.3;;;;;;;19.87;80.13184;932.4269;;;;
2020/09/22 19:03:09;;;;;;;2;1;;;;;;;19.86;80.04688;932.358;;;;
2020/09/22 19:05:35;;;;;;;1.4;1.2;;;;;;;19.76;80.37891;932.395;;;;
2020/09/22 19:08:00;;;;;;;2.5;1.5;;;;;;;19.72;80.60742;932.3181;;;;
2020/09/22 19:10:25;;;;;;;2.6;1.5;;;;;;;19.61;81.0752;932.3322;;;;
2020/09/22 19:12:53;;;;;;;2.3;1.7;;;;;;;19.65;80.96582;932.3401;;;;
2020/09/22 19:15:28;;;;;;;2.3;1;;;;;;;19.71;79.99805;932.3661;;;;
2020/09/22 19:17:46;;;;;;;3.3;1;;;;;;;19.33;81.45508;932.4083;;;;
2020/09/22 19:20:11;;;;;;;3.3;1.4;;;;;;;19.31;81.3125;932.4008;;;;
2020/09/22 19:22:37;;;;;;;2;1.5;;;;;;;19.45;80.53516;932.3856;;;;
2020/09/22 19:25:01;;;;;;;1.9;1.5;;;;;;;19.51;79.92676;932.4121;;;;
2020/09/22 19:27:27;;;;;;;2.9;1.5;;;;;;;19.47;80.09473;932.3907;;;;
2020/09/22 19:29:52;;;;;;;1.9;1.3;;;;;;;19.5;79.56348;932.4053;;;;
2020/09/22 19:32:17;;;;;;;1.8;1.2;;;;;;;19.5;79.51758;932.3826;;;;
2020/09/22 19:34:42;;;;;;;1.3;1.1;;;;;;;19.51;79.28418;932.3903;;;;
2020/09/22 19:37:08;;;;;;;3.9;1.6;;;;;;;19.38;79.23828;932.3572;;;;
2020/09/22 19:39:32;;;;;;;1.5;1.3;;;;;;;19.23;79.95801;932.3283;;;;
2020/09/22 19:41:58;;;;;;;2.1;1.5;;;;;;;19.24;79.58789;932.3312;;;;
2020/09/22 19:44:23;;;;;;;2.5;1.5;;;;;;;19.23;79.48047;932.2703;;;;
2020/09/22 19:46:52;;;;;;;2.2;1.2;;;;;;;19.29;79.35156;932.2141;;;;
2020/09/22 19:49:19;;;;;;;2.8;1.6;;;;;;;19.32;80.60352;932.1584;;;;
2020/09/22 19:51:44;;;;;;;2.4;1.4;;;;;;;19.07;81.51172;932.1624;;;;
2020/09/22 19:54:09;;;;;;;2.7;1.5;;;;;;;18.8;83.32324;932.1802;;;;
2020/09/22 19:56:34;;;;;;;3.8;1.8;;;;;;;18.58;84.16602;932.1364;;;;
2020/09/22 19:58:59;;;;;;;2.4;1.5;;;;;;;18.76;83.23535;932.0748;;;;
2020/09/22 20:01:24;;;;;;;6.7;1.8;;;;;;;18.9;82.14355;932.0499;;;;
2020/09/22 20:03:50;;;;;;;4.2;1.8;;;;;;;18.81;82.10449;932.0522;;;;
2020/09/22 20:06:15;;;;;;;2.5;1.3;;;;;;;18.89;82.08301;932.009;;;;
2020/09/22 20:08:41;;;;;;;3.2;1.7;;;;;;;18.85;82.55371;932.0385;;;;
2020/09/22 20:11:06;;;;;;;3.2;1.9;;;;;;;18.77;82.79297;932.0884;;;;
2020/09/22 20:13:31;;;;;;;1.1;1;;;;;;;18.68;83.51074;932.0396;;;;
2020/09/22 20:15:58;;;;;;;3.2;1.5;;;;;;;18.36;84.89063;932.0883;;;;
2020/09/22 20:18:25;;;;;;;1.9;1.7;;;;;;;18.31;85.18555;932.0549;;;;
2020/09/22 20:20:50;;;;;;;2.9;1.5;;;;;;;17.94;87.22559;931.9221;;;;
2020/09/22 20:23:15;;;;;;;5.5;2.1;;;;;;;18.08;86.77832;932.0114;;;;
2020/09/22 20:25:43;;;;;;;3.4;1.7;;;;;;;18.18;86.34277;931.9733;;;;
2020/09/22 20:28:07;;;;;;;1.9;1.7;;;;;;;18.12;86.62305;932.0322;;;;
2020/09/22 20:30:40;;;;;;;3.3;1.9;;;;;;;18.2;86.08105;931.9639;;;;
2020/09/22 20:33:08;;;;;;;3.1;2;;;;;;;18.25;85.76563;931.9609;;;;
2020/09/22 20:35:33;;;;;;;2.7;1.8;;;;;;;;;;;;;
2020/09/22 20:37:58;;;;;;;4.2;2.2;;;;;;;;;;;;;
2020/09/22 20:40:23;;;;;;;2;1.6;;;;;;;;;;;;;
2020/09/22 20:42:48;;;;;;;2.9;1.8;;;;;;;;;;;;;
2020/09/22 20:45:13;;;;;;;7.7;2.5;;;;;;;;;;;;;
2020/09/22 20:47:40;;;;;;;3.5;2.1;;;;;;;;;;;;;
2020/09/22 20:50:05;;;;;;;2.4;2;;;;;;;;;;;;;
2020/09/22 20:52:31;;;;;;;2.4;1.7;;;;;;;;;;;;;
2020/09/22 20:54:56;;;;;;;3;1.8;;;;;;;;;;;;;
2020/09/22 20:57:22;;;;;;;3.3;1.9;;;;;;;;;;;;;
2020/09/22 20:59:47;;;;;;;4;2;;;;;;;;;;;;;
2020/09/22 21:02:14;;;;;;;4.2;2.1;;;;;;;;;;;;;
2020/09/22 21:04:39;;;;;;;2.2;1.7;;;;;;;;;;;;;
2020/09/22 21:07:04;;;;;;;3.2;2.1;;;;;;;;;;;;;
2020/09/22 21:09:29;;;;;;;5.2;1.7;;;;;;;;;;;;;
2020/09/22 21:11:54;;;;;;;3.5;2.1;;;;;;;;;;;;;
2020/09/22 21:14:20;;;;;;;1.6;1.2;;;;;;;;;;;;;
2020/09/22 21:16:45;;;;;;;3.7;1.6;;;;;;;;;;;;;
2020/09/22 21:19:10;;;;;;;2;1.5;;;;;;;;;;;;;
2020/09/22 21:21:35;;;;;;;5.1;2.1;;;;;;;;;;;;;
2020/09/22 21:24:03;;;;;;;1.9;1.3;;;;;;;;;;;;;
2020/09/22 21:26:26;;;;;;;4.4;1.7;;;;;;;;;;;;;
2020/09/22 21:28:51;;;;;;;3.1;1.7;;;;;;;;;;;;;
2020/09/22 21:31:16;;;;;;;1.9;1.5;;;;;;;;;;;;;
2020/09/22 21:33:41;;;;;;;2.6;1.8;;;;;;;;;;;;;
2020/09/22 21:36:06;;;;;;;2.8;1.8;;;;;;;;;;;;;
2020/09/22 22:48:50;;;;;;;3;1.5;;;;;;;;;;;;;
2020/09/22 22:51:15;;;;;;;2.1;1.1;;;;;;;;;;;;;
2020/09/22 22:53:41;;;;;;;3.9;2.3;;;;;;;;;;;;;
2020/09/22 22:56:06;;;;;;;4.1;1.6;;;;;;;;;;;;;
2020/09/22 22:58:32;;;;;;;2;1.4;;;;;;;;;;;;;
2020/09/22 23:00:57;;;;;;;3.8;1.9;;;;;;;;;;;;;
2020/09/22 23:03:22;;;;;;;3.3;1.5;;;;;;;;;;;;;
2020/09/22 23:05:47;;;;;;;1.3;1.1;;;;;;;;;;;;;
2020/09/22 23:08:12;;;;;;;2.4;1.4;;;;;;;;;;;;;
2020/09/22 23:10:41;;;;;;;1.6;1.2;;;;;;;;;;;;;
2020/09/22 23:13:04;;;;;;;2.3;1.5;;;;;;;;;;;;;
2020/09/22 23:15:30;;;;;;;2;1.3;;;;;;;;;;;;;
2020/09/22 23:17:55;;;;;;;3.3;1.3;;;;;;;;;;;;;
2020/09/22 23:20:20;;;;;;;1.5;1.4;;;;;;;;;;;;;
2020/09/22 23:22:45;;;;;;;2.2;1.3;;;;;;;;;;;;;
2020/09/22 23:25:16;;;;;;;1.5;1.2;;;;;;;;;;;;;
2020/09/22 23:27:44;;;;;;;2;1.3;;;;;;;;;;;;;
2020/09/22 23:30:09;;;;;;;3.8;1.8;;;;;;;;;;;;;